Time;durP1;ratioP1;P1;durP2;ratioP2;P2;SDS_P1;SDS_P2;PMS_P1;PMS_P2;Temp;Humidity;BMP_temperature;BMP_pressure;BME280_temperature;BME280_humidity;BME280_pressure;Samples;Min_cycle;Max_cycle;Signal;HPM_P1;HPM_P2
2021/04/05 00:00:28;;;;;;;10.70;5.90;;;;;;;6.29;60.77;96163.75;5118288;27;20231;-60
2021/04/05 00:02:55;;;;;;;6.20;4.70;;;;;;;6.28;61.25;96160.34;5115831;28;20166;-60
2021/04/05 00:05:27;;;;;;;8.00;5.50;;;;;;;6.59;60.26;96163.09;5118050;27;20426;-70
2021/04/05 00:07:56;;;;;;;8.63;6.07;;;;;;;6.66;58.96;96165.66;5134309;27;20451;-60
2021/04/05 00:10:31;;;;;;;12.57;6.30;;;;;;;6.70;59.52;96154.63;5136318;27;20804;-70
2021/04/05 00:13:00;;;;;;;5.60;5.10;;;;;;;6.63;59.85;96163.47;5136302;27;20545;-70
2021/04/05 00:15:26;;;;;;;12.27;4.33;;;;;;;6.46;60.65;96165.72;5125614;27;20498;-60
2021/04/05 00:17:51;;;;;;;9.07;5.90;;;;;;;6.29;61.00;96151.50;5115188;28;20409;-60
2021/04/05 00:20:24;;;;;;;8.87;5.60;;;;;;;6.30;60.95;96153.13;5115629;28;20581;-60
2021/04/05 00:22:50;;;;;;;7.10;4.87;;;;;;;6.33;61.33;96146.66;5115482;28;20253;-60
2021/04/05 00:25:16;;;;;;;6.63;5.20;;;;;;;6.32;61.53;96147.69;5115514;28;20564;-70
2021/04/05 00:27:42;;;;;;;5.10;4.60;;;;;;;6.52;61.13;96143.22;5115051;28;20559;-70
2021/04/05 00:30:16;;;;;;;9.07;5.73;;;;;;;6.60;60.30;96138.56;5116336;27;20560;-70
2021/04/05 00:32:43;;;;;;;9.20;5.40;;;;;;;6.45;61.21;96139.84;5115497;28;20171;-70
2021/04/05 00:35:09;;;;;;;6.80;5.10;;;;;;;6.43;61.33;96126.19;5115162;28;20415;-60
2021/04/05 00:37:35;;;;;;;6.80;5.40;;;;;;;6.78;60.17;96137.91;5114801;28;20854;-61
2021/04/05 00:40:00;;;;;;;6.80;5.50;;;;;;;6.56;61.58;96139.97;5114955;28;20487;-70
2021/04/05 00:42:25;;;;;;;9.53;5.63;;;;;;;6.67;60.46;96146.38;5115268;28;20537;-70
2021/04/05 00:44:51;;;;;;;7.60;5.40;;;;;;;7.02;59.28;96150.25;5134641;27;20184;-70
2021/04/05 00:47:17;;;;;;;9.07;5.37;;;;;;;6.90;59.25;96147.47;5135111;27;20668;-70
2021/04/05 00:49:42;;;;;;;8.80;5.00;;;;;;;6.10;61.36;96141.91;5135601;27;20186;-69
2021/04/05 00:52:08;;;;;;;5.57;4.80;;;;;;;6.42;61.09;96137.63;5135607;27;20705;-70
2021/04/05 00:54:33;;;;;;;6.13;4.93;;;;;;;6.30;61.34;96126.22;5114651;28;20175;-69
2021/04/05 00:56:59;;;;;;;4.53;3.93;;;;;;;6.05;62.31;96113.81;5115487;27;20202;-63
2021/04/05 00:59:24;;;;;;;8.90;5.77;;;;;;;6.06;62.60;96122.47;5114700;28;20265;-60
2021/04/05 01:01:49;;;;;;;7.20;5.20;;;;;;;5.60;64.18;96119.06;5115028;28;20575;-69
2021/04/05 01:04:15;;;;;;;9.70;4.90;;;;;;;5.51;65.71;96115.06;5114952;28;20177;-60
2021/04/05 01:06:41;;;;;;;7.73;4.77;;;;;;;5.48;65.96;96105.03;5114839;28;20233;-70
2021/04/05 01:09:07;;;;;;;4.00;2.70;;;;;;;5.25;66.40;96100.22;5114133;28;20196;-70
2021/04/05 01:11:33;;;;;;;7.10;5.33;;;;;;;5.33;66.65;96091.41;5118497;27;20181;-69
2021/04/05 01:13:58;;;;;;;9.53;4.87;;;;;;;5.65;65.34;96088.78;5129934;27;20782;-60
2021/04/05 01:16:26;;;;;;;9.63;5.70;;;;;;;5.44;65.86;96083.78;5156106;27;20206;-70
2021/04/05 01:18:51;;;;;;;5.13;4.63;;;;;;;5.34;66.11;96069.56;5133566;27;20588;-60
2021/04/05 01:21:17;;;;;;;7.30;4.87;;;;;;;5.28;66.60;96071.16;5114521;28;20454;-69
2021/04/05 01:23:42;;;;;;;8.50;5.07;;;;;;;5.20;67.23;96079.97;5114470;27;20174;-70
2021/04/05 01:26:08;;;;;;;5.27;4.77;;;;;;;5.37;67.36;96069.97;5115478;27;20604;-70
2021/04/05 01:28:33;;;;;;;6.27;5.23;;;;;;;5.35;66.23;96071.97;5114075;28;20610;-69
2021/04/05 01:31:01;;;;;;;6.80;5.67;;;;;;;5.34;66.87;96082.56;5114431;28;20706;-69
2021/04/05 01:33:35;;;;;;;6.27;5.67;;;;;;;5.54;65.38;96081.59;5114334;28;20165;-60
2021/04/05 01:36:04;;;;;;;7.33;5.57;;;;;;;5.37;66.65;96077.78;5114041;28;20491;-60
2021/04/05 01:38:39;;;;;;;7.03;5.97;;;;;;;5.37;66.05;96066.53;5113816;28;20525;-60
2021/04/05 01:41:08;;;;;;;6.50;4.87;;;;;;;5.52;65.96;96052.31;5128794;27;20493;-60
2021/04/05 01:43:34;;;;;;;7.73;4.87;;;;;;;5.37;66.46;96048.31;5122075;27;20510;-70
2021/04/05 01:46:02;;;;;;;6.93;4.90;;;;;;;5.38;66.32;96039.50;5113850;28;20435;-61
2021/04/05 01:48:29;;;;;;;5.87;4.93;;;;;;;5.20;67.91;96045.28;5113307;28;20914;-69
2021/04/05 01:51:01;;;;;;;7.47;5.70;;;;;;;4.95;68.76;96047.69;5113690;28;20396;-60
2021/04/05 01:53:27;;;;;;;6.97;4.80;;;;;;;5.17;67.81;96043.09;5113705;27;20433;-70
2021/04/05 01:55:53;;;;;;;6.50;5.37;;;;;;;5.28;67.16;96041.69;5114142;28;20403;-71
2021/04/05 01:58:20;;;;;;;9.60;4.97;;;;;;;5.19;67.99;96030.69;5112083;28;20598;-60
2021/04/05 02:00:47;;;;;;;8.87;5.00;;;;;;;5.23;67.73;96016.28;5114001;28;20203;-60
2021/04/05 02:03:13;;;;;;;5.50;5.00;;;;;;;5.34;66.51;96017.47;5114947;28;20436;-60
2021/04/05 02:05:50;;;;;;;7.10;5.40;;;;;;;4.98;68.05;96016.06;5113159;28;20411;-61
2021/04/05 02:08:22;;;;;;;7.60;5.67;;;;;;;4.98;68.52;96016.06;5113564;28;20454;-70
2021/04/05 02:10:48;;;;;;;7.63;5.03;;;;;;;4.77;69.07;96007.63;5114093;28;20440;-60
2021/04/05 02:13:14;;;;;;;7.60;4.77;;;;;;;4.76;69.35;95996.44;5113911;28;20547;-70
2021/04/05 02:15:40;;;;;;;7.07;4.90;;;;;;;4.74;69.64;95987.22;5113800;28;20399;-70
2021/04/05 02:18:05;;;;;;;7.07;4.67;;;;;;;4.89;68.66;95985.22;5121335;28;20177;-60
2021/04/05 02:20:32;;;;;;;8.10;5.33;;;;;;;4.61;69.96;95975.00;5129930;27;20259;-69
2021/04/05 02:22:59;;;;;;;6.33;5.07;;;;;;;4.70;69.61;95975.59;5113527;28;20180;-60
2021/04/05 02:25:26;;;;;;;8.90;5.43;;;;;;;4.85;69.25;95968.41;5113533;28;20889;-60
2021/04/05 02:27:52;;;;;;;4.77;4.17;;;;;;;5.17;68.05;95970.19;5113340;28;20434;-60
2021/04/05 02:30:24;;;;;;;7.53;4.40;;;;;;;5.13;67.11;95955.97;5113500;28;20426;-60
2021/04/05 02:32:55;;;;;;;6.30;4.17;;;;;;;5.03;68.01;95956.41;5113783;28;20766;-60
2021/04/05 02:35:24;;;;;;;4.60;4.20;;;;;;;5.12;68.59;95951.78;5124653;28;20432;-70
2021/04/05 02:37:53;;;;;;;10.97;5.10;;;;;;;5.28;67.69;95953.97;5133669;27;20421;-60
2021/04/05 02:40:19;;;;;;;7.30;5.10;;;;;;;5.35;67.08;95951.34;5133997;27;20959;-60
2021/04/05 02:42:46;;;;;;;5.43;4.93;;;;;;;5.85;65.15;95948.81;5133914;27;20410;-70
2021/04/05 02:45:15;;;;;;;11.53;5.47;;;;;;;5.71;65.68;95944.66;5133959;27;20198;-69
2021/04/05 02:47:41;;;;;;;7.47;5.53;;;;;;;5.20;67.66;95944.56;5133139;27;20922;-68
2021/04/05 02:50:07;;;;;;;7.13;5.50;;;;;;;5.91;64.68;95947.19;5132317;28;20442;-60
2021/04/05 02:52:36;;;;;;;8.80;5.63;;;;;;;5.96;65.40;95952.63;5133659;27;20463;-70
2021/04/05 02:55:04;;;;;;;7.90;5.37;;;;;;;6.12;64.12;95939.88;5133720;27;20405;-61
2021/04/05 02:57:32;;;;;;;6.97;6.27;;;;;;;6.35;63.06;95935.97;5133346;27;20735;-70
2021/04/05 02:59:57;;;;;;;7.80;5.33;;;;;;;6.14;64.23;95937.09;5133586;27;20470;-70
2021/04/05 03:02:23;;;;;;;7.93;5.57;;;;;;;5.37;67.78;95937.13;5133101;27;20505;-68
2021/04/05 03:04:49;;;;;;;7.13;4.90;;;;;;;5.43;67.83;95925.91;5132524;28;20179;-70
2021/04/05 03:07:14;;;;;;;8.90;5.70;;;;;;;5.78;66.61;95926.41;5133376;27;20234;-60
2021/04/05 03:09:40;;;;;;;9.00;4.90;;;;;;;5.69;66.56;95928.41;5133375;27;20189;-70
2021/04/05 03:12:06;;;;;;;6.77;5.07;;;;;;;5.43;66.91;95925.09;5139633;27;20715;-70
2021/04/05 03:14:34;;;;;;;7.63;6.17;;;;;;;5.56;66.74;95923.22;5154339;27;20543;-70
2021/04/05 03:17:01;;;;;;;9.70;5.57;;;;;;;5.72;67.26;95922.00;5137470;27;20473;-69
2021/04/05 03:19:27;;;;;;;8.67;5.97;;;;;;;5.54;67.97;95911.44;5121568;27;20468;-70
2021/04/05 03:21:53;;;;;;;6.80;5.60;;;;;;;5.53;68.04;95900.22;5150712;27;20409;-70
2021/04/05 03:24:19;;;;;;;9.83;5.50;;;;;;;5.48;68.02;95889.59;5138790;27;20423;-69
2021/04/05 03:26:45;;;;;;;11.30;6.23;;;;;;;5.47;67.73;95882.78;5156784;27;20448;-69
2021/04/05 03:29:14;;;;;;;13.03;6.80;;;;;;;5.36;68.57;95880.84;5157516;27;20188;-70
2021/04/05 03:31:41;;;;;;;8.53;5.37;;;;;;;5.53;68.06;95879.38;5148614;27;20179;-60
2021/04/05 03:34:18;;;;;;;4.97;4.40;;;;;;;5.40;67.85;95873.41;5136185;27;20405;-60
2021/04/05 03:36:51;;;;;;;8.80;5.63;;;;;;;5.38;68.83;95857.19;5135359;27;20787;-60
2021/04/05 03:39:17;;;;;;;5.40;3.93;;;;;;;5.17;69.51;95853.03;5136805;27;20563;-69
2021/04/05 03:42:02;;;;;;;8.37;5.03;;;;;;;5.34;68.65;95845.56;5137151;27;20969;-60
2021/04/05 03:44:33;;;;;;;7.20;5.30;;;;;;;5.43;68.51;95837.34;5135640;27;20173;-59
2021/04/05 03:47:05;;;;;;;7.60;5.20;;;;;;;5.46;67.92;95836.09;5115899;28;20438;-64
2021/04/05 03:49:35;;;;;;;7.20;5.77;;;;;;;5.33;68.18;95834.34;5116555;28;20524;-60
2021/04/05 03:52:08;;;;;;;9.53;5.47;;;;;;;5.21;68.40;95836.81;5116289;28;20411;-70
2021/04/05 03:54:48;;;;;;;8.17;5.57;;;;;;;5.40;68.45;95835.13;5115887;28;20490;-67
2021/04/05 03:57:20;;;;;;;11.30;5.40;;;;;;;5.28;68.62;95836.78;5128263;27;20520;-68
2021/04/05 03:59:55;;;;;;;5.80;4.93;;;;;;;5.28;68.58;95836.78;5149518;27;20545;-68
2021/04/05 04:02:23;;;;;;;9.30;5.23;;;;;;;5.20;69.16;95842.19;5157362;27;20408;-69
2021/04/05 04:05:01;;;;;;;8.60;5.87;;;;;;;5.52;66.88;95838.69;5156823;27;20400;-69
2021/04/05 04:07:35;;;;;;;8.10;5.17;;;;;;;5.24;68.99;95838.19;5156994;27;20760;-60
2021/04/05 04:10:07;;;;;;;7.00;5.30;;;;;;;5.22;68.90;95829.78;5115731;28;20586;-65
2021/04/05 04:12:35;;;;;;;8.97;5.63;;;;;;;5.47;67.95;95829.91;5117164;27;20760;-69
2021/04/05 04:15:01;;;;;;;6.40;4.80;;;;;;;5.29;68.19;95827.16;5139114;27;20921;-70
2021/04/05 04:17:31;;;;;;;6.97;4.53;;;;;;;5.11;68.98;95817.41;5121538;27;20519;-60
2021/04/05 04:19:58;;;;;;;7.23;5.67;;;;;;;5.00;69.45;95807.66;5127595;27;20814;-60
2021/04/05 04:22:24;;;;;;;11.57;5.53;;;;;;;5.36;67.71;95797.50;5127205;27;20428;-68
2021/04/05 04:24:49;;;;;;;9.17;4.80;;;;;;;5.29;68.75;95799.31;5140126;27;20415;-60
2021/04/05 04:27:15;;;;;;;9.20;5.30;;;;;;;5.40;67.63;95788.25;5134234;27;20203;-69
2021/04/05 04:29:50;;;;;;;8.93;4.70;;;;;;;5.75;66.30;95797.28;5134041;27;20274;-59
2021/04/05 04:32:16;;;;;;;6.27;4.37;;;;;;;5.30;68.30;95782.69;5135979;27;20176;-69
2021/04/05 04:34:41;;;;;;;8.30;5.17;;;;;;;5.54;67.32;95783.78;5135771;27;20477;-70
2021/04/05 04:37:07;;;;;;;7.63;4.97;;;;;;;5.03;69.39;95783.78;5124810;27;20207;-61
2021/04/05 04:39:32;;;;;;;7.00;5.30;;;;;;;5.31;68.04;95779.06;5121958;27;20207;-60
2021/04/05 04:41:57;;;;;;;5.80;4.30;;;;;;;4.92;69.50;95779.22;5130360;27;20183;-59
2021/04/05 04:44:23;;;;;;;8.00;4.93;;;;;;;4.91;69.55;95773.22;5135904;27;20176;-60
2021/04/05 04:46:48;;;;;;;11.30;5.20;;;;;;;4.88;69.85;95765.81;5126518;27;20188;-60
2021/04/05 04:49:14;;;;;;;6.47;5.30;;;;;;;5.00;69.34;95758.19;5134415;27;20203;-66
2021/04/05 04:51:40;;;;;;;4.87;4.37;;;;;;;4.93;69.79;95749.56;5114928;27;20644;-59
2021/04/05 04:54:08;;;;;;;6.80;4.53;;;;;;;4.81;70.12;95754.63;5118974;27;20188;-70
2021/04/05 04:56:35;;;;;;;2.83;2.60;;;;;;;4.30;72.14;95750.31;5113380;28;20434;-69
2021/04/05 04:59:03;;;;;;;6.40;4.60;;;;;;;4.66;70.84;95756.66;5114159;27;20452;-59
2021/04/05 05:01:34;;;;;;;6.93;5.00;;;;;;;4.30;72.55;95751.13;5115603;27;20459;-59
2021/04/05 05:04:11;;;;;;;5.73;3.60;;;;;;;4.29;72.66;95746.94;5125924;27;20429;-59
2021/04/05 05:06:38;;;;;;;5.77;5.10;;;;;;;4.27;72.65;95740.34;5114817;28;20417;-69
2021/04/05 05:09:04;;;;;;;4.83;4.43;;;;;;;4.56;71.38;95734.69;5115195;27;20468;-69
2021/04/05 05:11:31;;;;;;;3.93;3.57;;;;;;;4.72;70.34;95721.22;5114472;28;21026;-69
2021/04/05 05:13:57;;;;;;;6.23;4.53;;;;;;;4.71;70.67;95715.22;5114608;28;20441;-59
2021/04/05 05:16:24;;;;;;;10.30;5.10;;;;;;;4.80;70.85;95716.59;5114594;27;20418;-69
2021/04/05 05:18:58;;;;;;;7.07;4.00;;;;;;;4.64;71.02;95718.88;5115085;27;20445;-60
2021/04/05 05:21:33;;;;;;;7.00;3.50;;;;;;;4.95;69.88;95721.53;5115637;27;20455;-60
2021/04/05 05:24:02;;;;;;;6.10;4.73;;;;;;;4.91;70.47;95705.53;5113871;27;20424;-60
2021/04/05 05:26:31;;;;;;;7.50;4.47;;;;;;;4.75;70.68;95711.22;5123417;27;20421;-67
2021/04/05 05:29:00;;;;;;;8.63;4.97;;;;;;;4.88;70.74;95705.16;5114579;27;20467;-60
2021/04/05 05:31:25;;;;;;;9.33;3.87;;;;;;;4.88;70.30;95699.97;5123507;27;20908;-60
2021/04/05 05:33:51;;;;;;;13.30;5.10;;;;;;;5.19;69.21;95694.81;5118637;27;20425;-69
2021/04/05 05:36:17;;;;;;;4.30;3.20;;;;;;;4.83;70.99;95694.59;5116679;27;20177;-59
2021/04/05 05:38:44;;;;;;;6.97;5.40;;;;;;;4.98;70.10;95695.91;5134051;27;20190;-69
2021/04/05 05:41:24;;;;;;;5.23;4.70;;;;;;;5.01;70.13;95685.09;5132721;27;20223;-60
2021/04/05 05:43:59;;;;;;;6.70;4.70;;;;;;;4.98;69.72;95679.50;5117307;27;20592;-62
2021/04/05 05:46:48;;;;;;;4.90;3.97;;;;;;;4.93;70.56;95680.13;5114195;28;20397;-69
2021/04/05 05:49:37;;;;;;;8.50;5.23;;;;;;;4.91;70.46;95683.94;5113529;28;20442;-69
2021/04/05 05:52:11;;;;;;;5.63;5.03;;;;;;;5.29;68.57;95668.31;5131170;27;20419;-70
2021/04/05 05:55:10;;;;;;;4.27;3.10;;;;;;;5.33;69.66;95672.13;5134790;27;20762;-70
2021/04/05 05:58:02;;;;;;;6.10;4.33;;;;;;;5.10;69.91;95670.84;5127499;27;20906;-59
2021/04/05 06:00:32;;;;;;;6.83;4.57;;;;;;;5.21;68.81;95670.19;5115552;27;20456;-69
2021/04/05 06:03:09;;;;;;;4.90;4.40;;;;;;;5.17;69.00;95650.75;5122403;27;20424;-69
2021/04/05 06:05:44;;;;;;;7.00;4.37;;;;;;;5.41;68.25;95659.63;5113709;28;20488;-70
2021/04/05 06:08:39;;;;;;;3.80;2.83;;;;;;;5.37;67.37;95648.03;5113460;28;20403;-60
2021/04/05 06:11:19;;;;;;;6.17;3.53;;;;;;;5.51;66.64;95649.53;5114905;28;20823;-70
2021/04/05 06:14:00;;;;;;;5.70;4.40;;;;;;;5.98;65.59;95650.78;5113873;28;20415;-69
2021/04/05 06:16:34;;;;;;;6.83;4.80;;;;;;;6.12;65.05;95657.47;5116184;28;20456;-70
2021/04/05 06:19:00;;;;;;;7.73;4.37;;;;;;;6.04;64.97;95655.94;5126215;27;20447;-60
2021/04/05 06:21:57;;;;;;;5.23;4.30;;;;;;;6.14;63.90;95655.47;5113755;28;20457;-60
2021/04/05 06:24:50;;;;;;;5.60;4.30;;;;;;;6.55;62.42;95639.16;5113919;28;20653;-60
2021/04/05 06:27:39;;;;;;;4.60;3.80;;;;;;;6.69;60.67;95632.75;5122732;28;20424;-70
2021/04/05 06:30:10;;;;;;;6.13;5.20;;;;;;;6.79;61.28;95633.06;5133360;27;20435;-69
2021/04/05 06:32:56;;;;;;;6.17;4.07;;;;;;;6.72;61.27;95621.91;5125436;27;20787;-60
2021/04/05 06:35:36;;;;;;;5.10;3.40;;;;;;;6.73;60.53;95623.50;5132369;28;20416;-69
2021/04/05 06:38:10;;;;;;;7.17;4.27;;;;;;;6.86;59.44;95633.78;5125164;27;20423;-70
2021/04/05 06:40:37;;;;;;;5.03;3.63;;;;;;;6.78;60.33;95624.41;5147095;27;20790;-70
2021/04/05 06:43:30;;;;;;;9.50;4.20;;;;;;;6.98;59.31;95629.38;5128581;27;20458;-70
2021/04/05 06:46:18;;;;;;;10.17;4.20;;;;;;;7.30;58.29;95612.47;5151943;27;20891;-61
2021/04/05 06:48:46;;;;;;;6.90;3.80;;;;;;;7.15;59.43;95604.25;5129750;28;20459;-70
2021/04/05 06:51:30;;;;;;;6.70;4.37;;;;;;;7.09;59.12;95603.31;5133879;27;20780;-60
2021/04/05 06:54:09;;;;;;;5.03;3.60;;;;;;;6.93;59.63;95587.47;5117332;28;20478;-70
2021/04/05 06:57:15;;;;;;;5.20;4.07;;;;;;;7.24;60.08;95590.66;5117291;28;20420;-70
2021/04/05 07:00:02;;;;;;;10.20;4.10;;;;;;;7.45;58.48;95593.75;5068970;28;20466;-60
2021/04/05 07:02:51;;;;;;;6.30;4.73;;;;;;;7.41;58.32;95596.00;5062420;28;21067;-60
2021/04/05 07:05:54;;;;;;;13.73;4.70;;;;;;;7.35;59.39;95604.75;5092150;28;20460;-70
2021/04/05 07:08:45;;;;;;;3.60;2.90;;;;;;;7.24;59.63;95601.09;5094053;28;20459;-69
2021/04/05 07:11:19;;;;;;;3.30;2.53;;;;;;;7.56;58.30;95601.59;5054417;28;20866;-60
2021/04/05 07:13:48;;;;;;;6.37;4.83;;;;;;;7.62;58.67;95602.53;5064226;28;20426;-61
2021/04/05 07:16:29;;;;;;;6.07;4.13;;;;;;;7.61;58.49;95590.50;5062665;28;20428;-60
2021/04/05 07:19:32;;;;;;;8.67;3.97;;;;;;;7.58;58.50;95589.13;5071905;28;20451;-60
2021/04/05 07:22:14;;;;;;;5.90;3.70;;;;;;;7.60;59.08;95596.72;5073898;28;20922;-70
2021/04/05 07:24:58;;;;;;;4.73;3.60;;;;;;;7.58;59.45;95598.75;5074472;28;20418;-70
2021/04/05 07:27:37;;;;;;;9.60;3.70;;;;;;;7.61;58.30;95595.72;5071493;28;20431;-70
2021/04/05 07:30:46;;;;;;;8.53;5.07;;;;;;;7.80;58.58;95591.97;5087023;28;20439;-69
2021/04/05 07:33:39;;;;;;;5.33;4.50;;;;;;;8.06;57.62;95591.53;5115663;28;20423;-61
2021/04/05 07:36:41;;;;;;;5.73;4.03;;;;;;;7.79;57.88;95587.78;5116396;28;20397;-70
2021/04/05 07:39:06;;;;;;;6.13;4.20;;;;;;;7.90;58.14;95590.38;5117116;27;20439;-60
2021/04/05 07:41:57;;;;;;;6.77;4.53;;;;;;;8.20;57.60;95588.44;5127745;27;20587;-70
2021/04/05 07:44:29;;;;;;;6.63;4.53;;;;;;;8.34;57.21;95578.53;5135721;27;20206;-70
2021/04/05 07:47:13;;;;;;;5.77;4.27;;;;;;;8.48;57.19;95589.56;5116025;28;20448;-70
2021/04/05 07:49:45;;;;;;;8.67;4.50;;;;;;;8.71;57.33;95579.81;5123626;27;20434;-60
2021/04/05 07:52:33;;;;;;;8.37;5.13;;;;;;;8.87;55.91;95578.25;5135375;27;20518;-60
2021/04/05 07:55:00;;;;;;;7.73;4.53;;;;;;;8.94;55.68;95571.84;5133635;27;20833;-69
2021/04/05 07:57:36;;;;;;;6.40;4.40;;;;;;;9.28;56.40;95570.06;5136277;27;20480;-58
2021/04/05 08:00:17;;;;;;;6.67;3.20;;;;;;;8.75;56.88;95574.91;5134608;27;20470;-61
2021/04/05 08:03:04;;;;;;;8.27;4.43;;;;;;;8.91;57.25;95563.66;5135844;27;20510;-61
2021/04/05 08:05:40;;;;;;;9.20;4.43;;;;;;;9.17;56.08;95563.88;5136503;27;20758;-62
2021/04/05 08:08:29;;;;;;;10.13;4.87;;;;;;;9.45;55.95;95557.00;5136087;27;20888;-60
2021/04/05 08:11:02;;;;;;;5.90;5.00;;;;;;;9.70;55.68;95558.19;5136704;27;20402;-62
2021/04/05 08:13:41;;;;;;;8.40;5.20;;;;;;;9.68;55.42;95556.81;5134480;27;20429;-61
2021/04/05 08:16:27;;;;;;;6.53;4.77;;;;;;;9.79;54.35;95562.00;5136383;27;20408;-58
2021/04/05 08:19:08;;;;;;;4.90;3.57;;;;;;;9.89;54.15;95546.38;5135406;27;20480;-58
2021/04/05 08:21:38;;;;;;;7.20;3.80;;;;;;;10.13;53.99;95549.63;5134194;27;20470;-60
2021/04/05 08:24:24;;;;;;;7.80;3.90;;;;;;;10.29;52.53;95546.97;5136323;27;20402;-60
2021/04/05 08:27:07;;;;;;;7.40;3.50;;;;;;;10.49;50.23;95543.78;5136114;27;20405;-65
2021/04/05 08:29:35;;;;;;;7.23;3.83;;;;;;;10.62;49.88;95558.38;5136025;27;20425;-60
2021/04/05 08:32:21;;;;;;;6.47;3.30;;;;;;;10.38;48.56;95546.53;5132649;27;20472;-60
2021/04/05 08:34:53;;;;;;;8.40;2.60;;;;;;;10.30;47.86;95540.69;5135902;27;20473;-62
2021/04/05 08:37:33;;;;;;;5.03;3.10;;;;;;;11.02;47.31;95548.28;5156138;27;20480;-59
2021/04/05 08:40:07;;;;;;;9.93;3.40;;;;;;;11.09;46.41;95544.44;5156375;27;20455;-59
2021/04/05 08:43:00;;;;;;;7.47;3.67;;;;;;;11.22;44.61;95546.66;5156647;27;20401;-60
2021/04/05 08:45:48;;;;;;;7.30;3.13;;;;;;;11.09;44.57;95533.91;5156637;27;20382;-61
2021/04/05 08:48:17;;;;;;;6.90;3.53;;;;;;;11.39;44.74;95539.44;5140151;27;20456;-61
2021/04/05 08:50:50;;;;;;;7.07;3.00;;;;;;;11.43;44.28;95537.13;5135085;27;20555;-61
2021/04/05 08:53:18;;;;;;;9.80;3.77;;;;;;;11.33;45.80;95531.75;5135784;27;20900;-61
2021/04/05 08:55:44;;;;;;;9.60;4.00;;;;;;;11.11;45.04;95547.59;5133700;27;20430;-61
2021/04/05 08:58:42;;;;;;;7.30;3.67;;;;;;;11.00;45.72;95553.00;5133897;27;20402;-60
2021/04/05 09:01:11;;;;;;;8.90;3.47;;;;;;;10.69;43.75;95554.53;5097677;28;20883;-61
2021/04/05 09:03:37;;;;;;;10.17;4.30;;;;;;;10.76;44.22;95551.72;5111228;28;20471;-61
2021/04/05 09:06:11;;;;;;;4.53;3.50;;;;;;;10.86;45.15;95541.31;5111178;28;20414;-61
2021/04/05 09:08:37;;;;;;;7.93;4.27;;;;;;;10.65;43.92;95552.66;5110874;28;20201;-61
2021/04/05 09:11:04;;;;;;;9.60;4.00;;;;;;;10.44;44.73;95548.19;5112805;27;20585;-60
2021/04/05 09:13:36;;;;;;;5.97;3.47;;;;;;;10.38;45.00;95538.66;5114780;27;20828;-61
2021/04/05 09:16:33;;;;;;;7.43;3.83;;;;;;;10.73;45.23;95528.56;5111171;28;20415;-61
2021/04/05 09:19:36;;;;;;;13.43;3.70;;;;;;;10.35;45.55;95534.69;5110335;28;20439;-61
2021/04/05 09:22:26;;;;;;;5.63;3.97;;;;;;;10.15;46.12;95550.19;5110870;28;20422;-61
2021/04/05 09:25:29;;;;;;;6.27;4.07;;;;;;;10.39;45.79;95527.91;5110789;28;20395;-58
2021/04/05 09:28:38;;;;;;;4.00;3.40;;;;;;;10.38;45.87;95511.34;5111570;27;20425;-63
2021/04/05 09:31:22;;;;;;;6.60;3.83;;;;;;;10.50;45.18;95503.38;5109471;28;21014;-64
2021/04/05 09:34:09;;;;;;;6.60;3.70;;;;;;;10.36;44.85;95500.31;5130181;27;20432;-64
2021/04/05 09:37:08;;;;;;;5.70;3.73;;;;;;;10.58;43.60;95505.53;5130801;27;20416;-64
2021/04/05 09:39:45;;;;;;;4.93;3.53;;;;;;;10.38;44.22;95491.41;5131029;27;20493;-64
2021/04/05 09:42:35;;;;;;;8.50;3.50;;;;;;;10.48;43.72;95496.75;5131184;27;20423;-64
2021/04/05 09:45:11;;;;;;;3.37;3.07;;;;;;;10.56;42.54;95485.81;5129210;27;20433;-64
2021/04/05 09:48:13;;;;;;;6.93;3.53;;;;;;;10.72;42.30;95490.19;5130045;27;20515;-64
2021/04/05 09:50:54;;;;;;;6.00;3.60;;;;;;;10.66;42.28;95473.59;5131011;27;20409;-64
2021/04/05 09:53:36;;;;;;;9.50;3.33;;;;;;;10.95;42.50;95476.75;5130947;27;20402;-63
2021/04/05 09:56:08;;;;;;;7.97;4.50;;;;;;;10.82;41.29;95469.25;5130934;27;20409;-64
2021/04/05 09:58:50;;;;;;;5.03;3.47;;;;;;;10.76;41.86;95467.66;5130130;27;20908;-64
2021/04/05 10:01:29;;;;;;;7.00;3.40;;;;;;;10.92;41.91;95458.84;5130959;27;20465;-64
2021/04/05 10:04:02;;;;;;;8.00;3.57;;;;;;;10.92;42.09;95456.22;5130871;27;20900;-64
2021/04/05 10:06:33;;;;;;;6.10;3.50;;;;;;;10.92;42.16;95457.03;5130840;27;21093;-64
2021/04/05 10:08:59;;;;;;;5.90;3.53;;;;;;;11.09;41.58;95436.66;5130421;27;20464;-64
2021/04/05 10:11:28;;;;;;;5.77;3.20;;;;;;;10.56;40.91;95439.34;5130228;27;20456;-64
2021/04/05 10:13:58;;;;;;;7.60;3.70;;;;;;;10.73;40.70;95440.03;5128848;27;20425;-64
2021/04/05 10:16:24;;;;;;;7.43;3.43;;;;;;;10.65;40.83;95435.22;5124227;27;20512;-64
2021/04/05 10:18:54;;;;;;;8.57;3.50;;;;;;;10.64;41.28;95435.47;5109704;28;20528;-64
2021/04/05 10:21:21;;;;;;;4.93;3.13;;;;;;;10.66;39.52;95433.38;5110159;28;20231;-63
2021/04/05 10:23:49;;;;;;;6.50;3.73;;;;;;;10.53;40.68;95431.94;5109639;28;20778;-63
2021/04/05 10:26:15;;;;;;;6.63;3.47;;;;;;;10.52;40.38;95421.69;5111057;28;20397;-63
2021/04/05 10:28:44;;;;;;;8.43;3.70;;;;;;;10.38;39.94;95437.06;5114015;28;20453;-63
2021/04/05 10:31:15;;;;;;;10.03;3.87;;;;;;;10.48;39.56;95431.91;5114233;28;20395;-63
2021/04/05 10:33:44;;;;;;;7.00;3.70;;;;;;;10.53;39.54;95423.25;5117829;27;20433;-64
2021/04/05 10:36:16;;;;;;;8.00;3.60;;;;;;;10.38;39.12;95410.00;5113608;28;20428;-64
2021/04/05 10:38:41;;;;;;;6.30;3.17;;;;;;;10.56;39.58;95399.94;5113685;28;20428;-63
2021/04/05 10:41:09;;;;;;;6.80;4.00;;;;;;;11.00;39.14;95406.63;5114016;28;20863;-64
2021/04/05 10:43:51;;;;;;;4.97;2.80;;;;;;;11.40;38.46;95414.00;5115160;27;20181;-62
2021/04/05 10:46:30;;;;;;;7.23;3.30;;;;;;;10.96;36.90;95423.16;5114084;28;20771;-63
2021/04/05 10:49:07;;;;;;;5.40;3.07;;;;;;;10.93;36.86;95418.38;5127219;27;20452;-63
2021/04/05 10:51:45;;;;;;;5.30;3.83;;;;;;;10.82;36.76;95416.72;5134390;27;20409;-64
2021/04/05 10:54:19;;;;;;;5.20;4.40;;;;;;;11.11;36.72;95407.47;5134369;27;20409;-65
2021/04/05 10:56:53;;;;;;;5.17;2.93;;;;;;;11.38;36.84;95409.00;5134326;27;20416;-64
2021/04/05 10:59:22;;;;;;;4.00;2.70;;;;;;;11.34;36.46;95405.28;5119733;27;20439;-65
2021/04/05 11:01:56;;;;;;;3.43;2.93;;;;;;;11.39;35.65;95399.28;5145839;27;20440;-64
2021/04/05 11:04:25;;;;;;;6.37;4.20;;;;;;;11.64;36.42;95401.22;5155005;27;20413;-64
2021/04/05 11:06:51;;;;;;;5.53;3.20;;;;;;;11.56;36.25;95399.88;5134429;27;20418;-65
2021/04/05 11:09:19;;;;;;;2.90;2.70;;;;;;;11.57;35.11;95388.31;5131763;27;20438;-63
2021/04/05 11:11:51;;;;;;;4.40;2.73;;;;;;;11.55;35.66;95395.66;5130603;27;20423;-62
2021/04/05 11:14:19;;;;;;;7.27;3.50;;;;;;;11.82;35.50;95379.78;5148704;27;20509;-65
2021/04/05 11:16:55;;;;;;;3.87;3.17;;;;;;;11.68;35.81;95376.84;5133944;27;20973;-63
2021/04/05 11:19:29;;;;;;;7.40;3.00;;;;;;;12.03;36.53;95389.34;5133616;27;20437;-65
2021/04/05 11:21:57;;;;;;;4.20;2.83;;;;;;;12.02;36.46;95379.84;5132162;27;20755;-64
2021/04/05 11:24:32;;;;;;;4.80;4.10;;;;;;;11.80;38.21;95387.13;5132912;27;20423;-63
2021/04/05 11:27:01;;;;;;;5.70;4.13;;;;;;;11.83;38.49;95382.13;5132093;27;20422;-64
2021/04/05 11:29:29;;;;;;;7.67;3.30;;;;;;;12.05;39.20;95380.13;5133821;27;20434;-65
2021/04/05 11:31:56;;;;;;;6.73;3.77;;;;;;;12.12;39.50;95374.63;5132312;27;20824;-63
2021/04/05 11:34:31;;;;;;;5.40;4.10;;;;;;;11.79;39.88;95373.19;5130099;27;21136;-65
2021/04/05 11:37:03;;;;;;;7.83;3.90;;;;;;;11.81;39.72;95381.59;5133116;27;20414;-65
2021/04/05 11:39:32;;;;;;;6.27;4.30;;;;;;;12.22;39.50;95378.06;5128481;27;20466;-65
2021/04/05 11:42:02;;;;;;;7.77;5.30;;;;;;;11.96;40.15;95401.94;5112550;28;20433;-66
2021/04/05 11:44:34;;;;;;;12.73;5.20;;;;;;;11.61;41.10;95384.13;5112506;27;20480;-63
2021/04/05 11:47:00;;;;;;;6.70;4.90;;;;;;;11.76;40.88;95391.34;5112541;27;20931;-62
2021/04/05 11:49:31;;;;;;;7.93;5.50;;;;;;;11.80;41.85;95371.34;5112357;27;20454;-63
2021/04/05 11:52:16;;;;;;;8.30;5.47;;;;;;;11.93;41.63;95373.50;5112293;27;20410;-64
2021/04/05 11:54:56;;;;;;;10.57;5.17;;;;;;;11.79;42.12;95372.41;5116982;27;20440;-63
2021/04/05 11:57:36;;;;;;;9.90;5.63;;;;;;;11.80;42.25;95371.34;5132506;27;20439;-63
2021/04/05 12:00:08;;;;;;;10.07;5.27;;;;;;;11.60;42.65;95385.16;5132184;27;20583;-63
2021/04/05 12:02:40;;;;;;;6.93;5.07;;;;;;;11.52;43.73;95377.78;5132709;27;20402;-63
2021/04/05 12:05:10;;;;;;;14.17;6.57;;;;;;;11.46;43.77;95385.88;5132687;27;20405;-63
2021/04/05 12:07:42;;;;;;;11.90;7.13;;;;;;;11.43;43.66;95382.72;5131983;27;20406;-62